Time,TemperatureF,DewpointF,PressureIn,WindDirection,WindDirectionDegrees,WindSpeedMPH,WindSpeedGustMPH,Humidity,HourlyPrecipIn,Conditions,Clouds,dailyrainin,SoftwareType,DateUTC
2013-08-16 00:04:00,62.8,61.6,29.91,ESE,122,0.0,-999.0,96,0.00,,,0.00,WeatherSnoop3.0,2013-08-16 05:04:00,
2013-08-16 00:09:00,62.7,61.8,29.91,ESE,122,0.0,-999.0,97,0.00,,,0.00,WeatherSnoop3.0,2013-08-16 05:09:00,
2013-08-16 00:14:00,62.6,61.7,29.91,SE,130,0.0,-999.0,97,0.00,,,0.00,WeatherSnoop3.0,2013-08-16 05:14:00,
2013-08-16 00:21:00,62.5,61.6,29.91,SE,130,0.0,-999.0,97,0.00,,,0.00,WeatherSnoop3.0,2013-08-16 05:21:00,
2013-08-16 00:26:00,62.4,61.5,29.91,SE,129,0.0,-999.0,97,0.00,,,0.00,WeatherSnoop3.0,2013-08-16 05:26:00,
2013-08-16 00:31:00,62.3,61.4,29.91,SE,130,0.0,-999.0,97,0.00,,,0.00,WeatherSnoop3.0,2013-08-16 05:31:00,
2013-08-16 00:36:00,62.3,61.4,29.91,SW,218,0.0,-999.0,97,0.00,,,0.00,WeatherSnoop3.0,2013-08-16 05:36:00,
2013-08-16 00:41:00,62.2,61.3,29.91,SW,218,0.0,-999.0,97,0.00,,,0.00,WeatherSnoop3.0,2013-08-16 05:41:00,
2013-08-16 00:46:00,62.2,61.3,29.92,SW,218,0.0,-999.0,97,0.00,,,0.00,WeatherSnoop3.0,2013-08-16 05:46:00,
2013-08-16 00:51:00,62.2,61.6,29.91,SW,219,0.0,-999.0,98,0.00,,,0.00,WeatherSnoop3.0,2013-08-16 05:51:00,
2013-08-16 00:56:00,62.2,61.3,29.92,SSE,153,0.0,-999.0,97,0.00,,,0.00,WeatherSnoop3.0,2013-08-16 05:56:00,
2013-08-16 01:01:00,62.1,61.2,29.92,SSE,165,0.0,-999.0,97,0.00,,,0.00,WeatherSnoop3.0,2013-08-16 06:01:00,
2013-08-16 01:06:00,62.1,61.2,29.92,SSE,165,0.0,-999.0,97,0.00,,,0.00,WeatherSnoop3.0,2013-08-16 06:06:00,
2013-08-16 01:11:00,62.0,61.1,29.92,SSE,165,0.0,-999.0,97,0.00,,,0.00,WeatherSnoop3.0,2013-08-16 06:11:00,
2013-08-16 01:16:00,61.9,61.0,29.92,SSE,165,0.0,-999.0,97,0.00,,,0.00,WeatherSnoop3.0,2013-08-16 06:16:00,
2013-08-16 01:21:00,61.7,60.8,29.92,SSE,165,0.0,-999.0,97,0.00,,,0.00,WeatherSnoop3.0,2013-08-16 06:21:00,
2013-08-16 01:26:00,61.6,60.7,29.92,SSE,165,0.0,-999.0,97,0.00,,,0.00,WeatherSnoop3.0,2013-08-16 06:26:00,
2013-08-16 01:31:00,61.5,60.9,29.92,SSE,165,0.0,-999.0,98,0.00,,,0.00,WeatherSnoop3.0,2013-08-16 06:31:00,
2013-08-16 01:36:00,61.3,60.4,29.92,SSE,165,0.0,-999.0,97,0.00,,,0.00,WeatherSnoop3.0,2013-08-16 06:36:00,
2013-08-16 01:41:00,61.3,60.7,29.92,SSE,165,0.0,-999.0,98,0.00,,,0.00,WeatherSnoop3.0,2013-08-16 06:41:00,
2013-08-16 01:46:00,61.2,60.6,29.92,SSE,165,0.0,-999.0,98,0.00,,,0.00,WeatherSnoop3.0,2013-08-16 06:46:00,
2013-08-16 01:51:00,61.1,60.5,29.92,SSE,165,0.0,-999.0,98,0.00,,,0.00,WeatherSnoop3.0,2013-08-16 06:51:00,
2013-08-16 01:56:00,61.0,60.4,29.92,SSE,165,0.0,-999.0,98,0.00,,,0.00,WeatherSnoop3.0,2013-08-16 06:56:00,
2013-08-16 02:01:00,61.0,60.4,29.92,SSE,165,0.0,-999.0,98,0.00,,,0.00,WeatherSnoop3.0,2013-08-16 07:01:00,
2013-08-16 02:06:00,61.0,60.4,29.91,SSE,165,0.0,-999.0,98,0.00,,,0.00,WeatherSnoop3.0,2013-08-16 07:06:00,
2013-08-16 02:11:00,61.0,60.4,29.91,SSE,152,0.0,-999.0,98,0.00,,,0.00,WeatherSnoop3.0,2013-08-16 07:11:00,
2013-08-16 02:16:00,61.1,60.5,29.91,SSE,152,0.0,-999.0,98,0.00,,,0.00,WeatherSnoop3.0,2013-08-16 07:16:00,
2013-08-16 02:21:00,61.1,60.5,29.91,SSE,153,0.0,-999.0,98,0.00,,,0.00,WeatherSnoop3.0,2013-08-16 07:21:00,
2013-08-16 02:26:00,61.1,60.5,29.91,SSE,152,0.0,-999.0,98,0.00,,,0.01,WeatherSnoop3.0,2013-08-16 07:26:00,
2013-08-16 02:30:00,61.0,60.4,29.91,SSE,148,0.0,-999.0,98,0.00,,,0.01,WeatherSnoop3.0,2013-08-16 07:30:00,
2013-08-16 02:35:00,61.0,60.4,29.91,SSE,148,0.0,-999.0,98,0.00,,,0.01,WeatherSnoop3.0,2013-08-16 07:35:00,
2013-08-16 02:41:00,60.9,60.3,29.91,SSE,148,0.0,-999.0,98,0.00,,,0.01,WeatherSnoop3.0,2013-08-16 07:41:00,
2013-08-16 02:45:00,60.9,60.3,29.91,SSE,148,0.0,-999.0,98,0.00,,,0.01,WeatherSnoop3.0,2013-08-16 07:45:00,
2013-08-16 02:51:00,60.9,60.3,29.91,SSE,148,0.0,-999.0,98,0.00,,,0.01,WeatherSnoop3.0,2013-08-16 07:51:00,
2013-08-16 02:55:00,60.8,60.2,29.91,SSE,148,0.0,-999.0,98,0.00,,,0.01,WeatherSnoop3.0,2013-08-16 07:55:00,
2013-08-16 03:00:00,60.8,60.2,29.91,SE,146,0.0,-999.0,98,0.00,,,0.01,WeatherSnoop3.0,2013-08-16 08:00:00,
2013-08-16 03:05:00,60.7,60.1,29.91,SE,146,0.0,-999.0,98,0.00,,,0.01,WeatherSnoop3.0,2013-08-16 08:05:00,
2013-08-16 03:10:00,60.6,60.0,29.92,SSE,162,0.0,-999.0,98,0.00,,,0.01,WeatherSnoop3.0,2013-08-16 08:10:00,
2013-08-16 03:15:00,60.5,59.9,29.92,SSE,162,0.0,-999.0,98,0.00,,,0.01,WeatherSnoop3.0,2013-08-16 08:15:00,
2013-08-16 03:20:00,60.4,59.8,29.92,SSE,162,0.0,-999.0,98,0.00,,,0.01,WeatherSnoop3.0,2013-08-16 08:20:00,
2013-08-16 03:25:00,60.4,59.8,29.92,SSE,162,0.0,-999.0,98,0.00,,,0.01,WeatherSnoop3.0,2013-08-16 08:25:00,
2013-08-16 03:30:00,60.6,60.0,29.92,SSE,160,0.0,-999.0,98,0.00,,,0.01,WeatherSnoop3.0,2013-08-16 08:30:00,
2013-08-16 03:35:00,60.7,60.1,29.92,SSE,162,0.0,-999.0,98,0.00,,,0.01,WeatherSnoop3.0,2013-08-16 08:35:00,
2013-08-16 03:40:00,60.7,60.1,29.92,SE,146,0.0,-999.0,98,0.00,,,0.01,WeatherSnoop3.0,2013-08-16 08:40:00,
2013-08-16 03:45:00,60.6,60.0,29.92,SW,219,0.0,-999.0,98,0.00,,,0.01,WeatherSnoop3.0,2013-08-16 08:45:00,
2013-08-16 03:50:00,60.7,60.1,29.92,SSE,147,1.0,-999.0,98,0.00,,,0.01,WeatherSnoop3.0,2013-08-16 08:50:00,
2013-08-16 03:55:00,60.8,60.5,29.92,SE,139,0.0,-999.0,99,0.00,,,0.01,WeatherSnoop3.0,2013-08-16 08:55:00,
2013-08-16 04:00:00,61.0,60.7,29.92,SSE,165,0.0,-999.0,99,0.00,,,0.01,WeatherSnoop3.0,2013-08-16 09:00:00,
2013-08-16 04:05:00,61.3,61.0,29.92,SE,134,2.0,-999.0,99,0.00,,,0.01,WeatherSnoop3.0,2013-08-16 09:05:00,
2013-08-16 04:10:00,61.4,61.1,29.92,SE,139,0.0,-999.0,99,0.00,,,0.01,WeatherSnoop3.0,2013-08-16 09:10:00,
2013-08-16 04:15:00,61.5,61.2,29.92,SSE,153,2.0,-999.0,99,0.00,,,0.01,WeatherSnoop3.0,2013-08-16 09:15:00,
2013-08-16 04:20:00,61.6,61.3,29.92,SSE,154,2.0,-999.0,99,0.00,,,0.01,WeatherSnoop3.0,2013-08-16 09:20:00,
2013-08-16 04:25:00,61.8,61.5,29.92,SSE,163,2.0,-999.0,99,0.00,,,0.01,WeatherSnoop3.0,2013-08-16 09:25:00,
2013-08-16 04:30:00,61.8,61.5,29.91,SE,144,0.0,-999.0,99,0.00,,,0.01,WeatherSnoop3.0,2013-08-16 09:30:00,
2013-08-16 04:35:00,61.9,61.6,29.91,SE,145,1.0,-999.0,99,0.00,,,0.01,WeatherSnoop3.0,2013-08-16 09:35:00,
2013-08-16 04:40:00,62.0,61.7,29.91,SE,137,1.0,-999.0,99,0.00,,,0.01,WeatherSnoop3.0,2013-08-16 09:40:00,
2013-08-16 04:45:00,62.0,61.4,29.91,SSE,152,0.0,-999.0,98,0.00,,,0.01,WeatherSnoop3.0,2013-08-16 09:45:00,
2013-08-16 04:50:00,62.1,61.5,29.91,SE,143,0.0,-999.0,98,0.00,,,0.01,WeatherSnoop3.0,2013-08-16 09:50:00,
2013-08-16 04:55:00,62.1,61.5,29.91,SSE,152,2.0,-999.0,98,0.00,,,0.01,WeatherSnoop3.0,2013-08-16 09:55:00,
2013-08-16 05:00:00,62.0,61.4,29.91,SE,146,1.0,-999.0,98,0.00,,,0.01,WeatherSnoop3.0,2013-08-16 10:00:00,
2013-08-16 05:05:00,62.1,61.5,29.91,SE,142,0.0,-999.0,98,0.00,,,0.01,WeatherSnoop3.0,2013-08-16 10:05:00,
2013-08-16 05:10:00,62.1,61.5,29.91,ESE,119,1.0,-999.0,98,0.00,,,0.01,WeatherSnoop3.0,2013-08-16 10:10:00,
2013-08-16 05:15:00,62.2,61.6,29.92,SE,144,1.0,-999.0,98,0.00,,,0.01,WeatherSnoop3.0,2013-08-16 10:15:00,
2013-08-16 05:20:00,62.3,61.7,29.92,SE,139,0.0,-999.0,98,0.00,,,0.01,WeatherSnoop3.0,2013-08-16 10:20:00,
2013-08-16 05:25:00,62.3,61.7,29.92,SE,125,0.0,-999.0,98,0.00,,,0.01,WeatherSnoop3.0,2013-08-16 10:25:00,
2013-08-16 05:30:00,62.2,61.6,29.92,SSE,149,0.0,-999.0,98,0.00,,,0.01,WeatherSnoop3.0,2013-08-16 10:30:00,
2013-08-16 05:35:00,62.3,61.7,29.92,SE,134,0.0,-999.0,98,0.00,,,0.01,WeatherSnoop3.0,2013-08-16 10:35:00,
2013-08-16 05:40:00,62.4,61.8,29.92,SE,145,2.0,-999.0,98,0.00,,,0.01,WeatherSnoop3.0,2013-08-16 10:40:00,
2013-08-16 05:45:00,62.4,61.8,29.92,SE,131,0.0,-999.0,98,0.00,,,0.01,WeatherSnoop3.0,2013-08-16 10:45:00,
2013-08-16 05:50:00,62.5,61.9,29.92,SE,124,2.0,-999.0,98,0.00,,,0.01,WeatherSnoop3.0,2013-08-16 10:50:00,
2013-08-16 05:55:00,62.5,61.9,29.92,ESE,116,3.0,-999.0,98,0.00,,,0.01,WeatherSnoop3.0,2013-08-16 10:55:00,
2013-08-16 06:00:00,62.5,61.9,29.92,SE,128,0.0,-999.0,98,0.00,,,0.01,WeatherSnoop3.0,2013-08-16 11:00:00,
2013-08-16 06:05:00,62.5,61.9,29.93,SE,137,0.0,-999.0,98,0.00,,,0.01,WeatherSnoop3.0,2013-08-16 11:05:00,
2013-08-16 06:10:00,62.5,61.9,29.93,ESE,113,0.0,-999.0,98,0.00,,,0.01,WeatherSnoop3.0,2013-08-16 11:10:00,
2013-08-16 06:15:00,62.5,61.9,29.93,SE,134,1.0,-999.0,98,0.00,,,0.01,WeatherSnoop3.0,2013-08-16 11:15:00,
2013-08-16 06:21:00,62.5,61.9,29.93,SE,134,1.0,-999.0,98,0.00,,,0.01,WeatherSnoop3.0,2013-08-16 11:21:00,
2013-08-16 06:25:00,62.6,62.0,29.93,SE,143,0.0,-999.0,98,0.00,,,0.01,WeatherSnoop3.0,2013-08-16 11:25:00,
2013-08-16 06:30:00,62.6,62.0,29.94,SE,143,0.0,-999.0,98,0.00,,,0.01,WeatherSnoop3.0,2013-08-16 11:30:00,
2013-08-16 06:35:00,62.7,62.1,29.94,SE,143,0.0,-999.0,98,0.00,,,0.01,WeatherSnoop3.0,2013-08-16 11:35:00,
2013-08-16 06:40:00,62.8,62.2,29.94,ENE,72,0.0,-999.0,98,0.00,,,0.01,WeatherSnoop3.0,2013-08-16 11:40:00,
2013-08-16 06:45:00,62.8,62.2,29.95,SSE,158,2.0,-999.0,98,0.00,,,0.01,WeatherSnoop3.0,2013-08-16 11:45:00,
2013-08-16 06:50:00,62.8,62.2,29.94,SE,124,0.0,-999.0,98,0.00,,,0.01,WeatherSnoop3.0,2013-08-16 11:50:00,
2013-08-16 06:55:00,62.8,62.2,29.94,SSE,147,0.0,-999.0,98,0.00,,,0.01,WeatherSnoop3.0,2013-08-16 11:55:00,
2013-08-16 07:00:00,62.8,62.2,29.94,ESE,113,0.0,-999.0,98,0.00,,,0.01,WeatherSnoop3.0,2013-08-16 12:00:00,
2013-08-16 07:05:00,62.8,62.2,29.94,SSE,167,1.0,-999.0,98,0.00,,,0.01,WeatherSnoop3.0,2013-08-16 12:05:00,
2013-08-16 07:10:00,62.8,62.2,29.94,SE,146,2.0,-999.0,98,0.00,,,0.01,WeatherSnoop3.0,2013-08-16 12:10:00,
2013-08-16 07:15:00,62.9,62.3,29.95,ESE,120,0.0,-999.0,98,0.00,,,0.01,WeatherSnoop3.0,2013-08-16 12:15:00,
2013-08-16 07:20:00,62.9,62.3,29.95,SSE,147,0.0,-999.0,98,0.00,,,0.01,WeatherSnoop3.0,2013-08-16 12:20:00,
2013-08-16 07:25:00,63.0,62.4,29.98,North,6,0.0,-999.0,98,0.00,,,0.01,WeatherSnoop3.0,2013-08-16 12:25:00,
2013-08-16 07:30:00,63.0,62.4,29.99,NE,41,3.0,-999.0,98,0.00,,,0.01,WeatherSnoop3.0,2013-08-16 12:30:00,
2013-08-16 07:35:00,63.1,62.5,29.99,ENE,77,0.0,-999.0,98,0.00,,,0.01,WeatherSnoop3.0,2013-08-16 12:35:00,
2013-08-16 07:40:00,63.1,62.5,29.97,SE,139,0.0,-999.0,98,0.00,,,0.01,WeatherSnoop3.0,2013-08-16 12:40:00,
2013-08-16 07:45:00,63.3,62.7,29.95,SE,128,2.0,-999.0,98,0.00,,,0.01,WeatherSnoop3.0,2013-08-16 12:45:00,
2013-08-16 07:50:00,63.2,62.6,29.95,SE,143,1.0,-999.0,98,0.00,,,0.02,WeatherSnoop3.0,2013-08-16 12:50:00,
2013-08-16 07:55:00,63.3,62.7,29.96,WSW,248,1.0,-999.0,98,0.00,,,0.02,WeatherSnoop3.0,2013-08-16 12:55:00,
2013-08-16 08:00:00,63.5,62.9,29.95,SSE,153,1.0,-999.0,98,0.00,,,0.02,WeatherSnoop3.0,2013-08-16 13:00:00,
2013-08-16 08:05:00,63.5,62.6,29.96,ESE,110,0.0,-999.0,97,0.00,,,0.02,WeatherSnoop3.0,2013-08-16 13:05:00,
2013-08-16 08:10:00,63.7,63.1,29.97,SSE,162,0.0,-999.0,98,0.00,,,0.02,WeatherSnoop3.0,2013-08-16 13:10:00,
2013-08-16 08:15:00,63.9,63.3,29.97,SE,126,1.0,-999.0,98,0.00,,,0.02,WeatherSnoop3.0,2013-08-16 13:15:00,
2013-08-16 08:20:00,64.2,63.6,29.97,SE,124,0.0,-999.0,98,0.00,,,0.02,WeatherSnoop3.0,2013-08-16 13:20:00,
2013-08-16 08:25:00,64.2,63.3,29.97,ESE,123,0.0,-999.0,97,0.00,,,0.02,WeatherSnoop3.0,2013-08-16 13:25:00,
2013-08-16 08:30:00,64.1,63.2,29.97,ESE,115,0.0,-999.0,97,0.00,,,0.02,WeatherSnoop3.0,2013-08-16 13:30:00,
2013-08-16 08:35:00,64.0,63.1,29.97,East,92,1.0,-999.0,97,0.00,,,0.02,WeatherSnoop3.0,2013-08-16 13:35:00,
2013-08-16 08:40:00,64.0,63.1,29.97,SE,137,0.0,-999.0,97,0.00,,,0.02,WeatherSnoop3.0,2013-08-16 13:40:00,
2013-08-16 08:45:00,63.9,63.0,29.98,SE,132,0.0,-999.0,97,0.00,,,0.02,WeatherSnoop3.0,2013-08-16 13:45:00,
2013-08-16 08:50:00,64.1,63.2,29.98,ESE,107,0.0,-999.0,97,0.00,,,0.02,WeatherSnoop3.0,2013-08-16 13:50:00,
2013-08-16 08:55:00,64.2,63.3,29.98,ENE,61,0.0,-999.0,97,0.00,,,0.02,WeatherSnoop3.0,2013-08-16 13:55:00,
2013-08-16 09:00:00,64.4,63.5,29.97,ESE,113,1.0,-999.0,97,0.00,,,0.02,WeatherSnoop3.0,2013-08-16 14:00:00,
2013-08-16 09:05:00,64.6,63.4,29.96,East,91,0.0,-999.0,96,0.00,,,0.02,WeatherSnoop3.0,2013-08-16 14:05:00,
2013-08-16 09:10:00,65.0,64.1,29.97,NNW,338,0.0,-999.0,97,0.00,,,0.02,WeatherSnoop3.0,2013-08-16 14:10:00,
2013-08-16 09:15:00,65.3,64.1,29.97,SSE,156,0.0,-999.0,96,0.00,,,0.02,WeatherSnoop3.0,2013-08-16 14:15:00,
2013-08-16 09:20:00,65.8,64.6,29.98,SW,216,0.0,-999.0,96,0.00,,,0.02,WeatherSnoop3.0,2013-08-16 14:20:00,
2013-08-16 09:25:00,66.0,64.5,29.98,SE,143,0.0,-999.0,95,0.00,,,0.02,WeatherSnoop3.0,2013-08-16 14:25:00,
2013-08-16 09:30:00,65.8,64.0,29.99,SE,129,0.0,-999.0,94,0.00,,,0.02,WeatherSnoop3.0,2013-08-16 14:30:00,
2013-08-16 09:35:00,66.0,64.2,29.99,SSE,168,2.0,-999.0,94,0.00,,,0.02,WeatherSnoop3.0,2013-08-16 14:35:00,
2013-08-16 09:40:00,65.9,63.8,29.99,SSE,153,0.0,-999.0,93,0.00,,,0.02,WeatherSnoop3.0,2013-08-16 14:40:00,
2013-08-16 09:46:00,66.2,64.4,29.99,ENE,63,0.0,-999.0,94,0.00,,,0.02,WeatherSnoop3.0,2013-08-16 14:46:00,
2013-08-16 09:51:00,66.4,64.9,29.99,SSE,165,0.0,-999.0,95,0.00,,,0.02,WeatherSnoop3.0,2013-08-16 14:51:00,
2013-08-16 09:56:00,66.7,64.6,29.99,SSE,165,0.0,-999.0,93,0.00,,,0.02,WeatherSnoop3.0,2013-08-16 14:56:00,
2013-08-16 10:01:00,66.8,64.7,29.98,SE,132,0.0,-999.0,93,0.00,,,0.02,WeatherSnoop3.0,2013-08-16 15:01:00,
2013-08-16 10:06:00,67.0,64.9,29.98,East,92,0.0,-999.0,93,0.00,,,0.02,WeatherSnoop3.0,2013-08-16 15:06:00,
2013-08-16 10:11:00,67.2,64.5,29.99,SE,138,1.0,-999.0,91,0.00,,,0.02,WeatherSnoop3.0,2013-08-16 15:11:00,
2013-08-16 10:16:00,67.5,64.8,29.98,SSE,155,4.0,-999.0,91,0.00,,,0.02,WeatherSnoop3.0,2013-08-16 15:16:00,
2013-08-16 10:21:00,67.5,64.8,29.99,NE,53,0.0,-999.0,91,0.00,,,0.02,WeatherSnoop3.0,2013-08-16 15:21:00,
2013-08-16 10:26:00,67.6,64.9,29.99,SSW,198,1.0,-999.0,91,0.00,,,0.02,WeatherSnoop3.0,2013-08-16 15:26:00,
2013-08-16 10:31:00,67.9,64.9,29.99,SE,132,0.0,-999.0,90,0.00,,,0.02,WeatherSnoop3.0,2013-08-16 15:31:00,
2013-08-16 10:36:00,68.0,65.3,29.99,SSE,155,4.0,-999.0,91,0.00,,,0.02,WeatherSnoop3.0,2013-08-16 15:36:00,
2013-08-16 10:41:00,67.6,64.6,29.99,SSE,155,1.0,-999.0,90,0.00,,,0.02,WeatherSnoop3.0,2013-08-16 15:41:00,
2013-08-16 10:46:00,67.7,65.3,29.99,SE,125,1.0,-999.0,92,0.00,,,0.02,WeatherSnoop3.0,2013-08-16 15:46:00,
2013-08-16 10:51:00,68.0,65.0,29.99,SE,138,1.0,-999.0,90,0.00,,,0.02,WeatherSnoop3.0,2013-08-16 15:51:00,
2013-08-16 10:56:00,68.2,64.8,29.99,SE,143,2.0,-999.0,89,0.00,,,0.02,WeatherSnoop3.0,2013-08-16 15:56:00,
2013-08-16 11:01:00,68.5,64.8,29.99,SE,146,3.0,-999.0,88,0.00,,,0.02,WeatherSnoop3.0,2013-08-16 16:01:00,
2013-08-16 11:06:00,68.4,64.7,29.99,ESE,115,1.0,-999.0,88,0.00,,,0.02,WeatherSnoop3.0,2013-08-16 16:06:00,
2013-08-16 11:11:00,68.8,65.4,30.00,SE,136,0.0,-999.0,89,0.00,,,0.02,WeatherSnoop3.0,2013-08-16 16:11:00,
2013-08-16 11:16:00,69.5,66.1,30.00,SSE,155,2.0,-999.0,89,0.00,,,0.02,WeatherSnoop3.0,2013-08-16 16:16:00,
2013-08-16 11:21:00,69.7,65.7,30.00,SE,132,1.0,-999.0,87,0.00,,,0.02,WeatherSnoop3.0,2013-08-16 16:21:00,
2013-08-16 11:26:00,69.7,65.3,29.99,SSE,153,0.0,-999.0,86,0.00,,,0.02,WeatherSnoop3.0,2013-08-16 16:26:00,
2013-08-16 11:31:00,70.1,65.0,29.99,SE,126,0.0,-999.0,84,0.00,,,0.02,WeatherSnoop3.0,2013-08-16 16:31:00,
2013-08-16 11:36:00,70.7,66.6,29.99,SSE,148,0.0,-999.0,87,0.00,,,0.02,WeatherSnoop3.0,2013-08-16 16:36:00,
2013-08-16 11:41:00,71.5,66.4,29.99,SSE,158,0.0,-999.0,84,0.00,,,0.02,WeatherSnoop3.0,2013-08-16 16:41:00,
2013-08-16 11:46:00,71.1,65.3,29.99,SSE,164,1.0,-999.0,82,0.00,,,0.02,WeatherSnoop3.0,2013-08-16 16:46:00,
2013-08-16 11:51:00,71.3,65.5,29.99,SSE,148,0.0,-999.0,82,0.00,,,0.02,WeatherSnoop3.0,2013-08-16 16:51:00,
2013-08-16 11:56:00,71.7,65.9,29.99,SE,135,0.0,-999.0,82,0.00,,,0.02,WeatherSnoop3.0,2013-08-16 16:56:00,
2013-08-16 12:01:00,71.7,65.9,29.99,SE,129,0.0,-999.0,82,0.00,,,0.02,WeatherSnoop3.0,2013-08-16 17:01:00,
2013-08-16 12:06:00,72.0,65.8,29.99,SW,222,0.0,-999.0,81,0.00,,,0.02,WeatherSnoop3.0,2013-08-16 17:06:00,
2013-08-16 12:11:00,72.3,65.8,29.99,NNE,17,0.0,-999.0,80,0.00,,,0.02,WeatherSnoop3.0,2013-08-16 17:11:00,
2013-08-16 12:16:00,72.1,65.9,29.99,NE,46,0.0,-999.0,81,0.00,,,0.02,WeatherSnoop3.0,2013-08-16 17:16:00,
2013-08-16 12:21:00,72.4,65.9,29.99,SE,146,4.0,-999.0,80,0.00,,,0.02,WeatherSnoop3.0,2013-08-16 17:21:00,
2013-08-16 12:26:00,72.1,65.2,29.99,SSE,156,1.0,-999.0,79,0.00,,,0.02,WeatherSnoop3.0,2013-08-16 17:26:00,
2013-08-16 12:31:00,72.1,66.6,29.99,ENE,63,0.0,-999.0,83,0.00,,,0.02,WeatherSnoop3.0,2013-08-16 17:31:00,
2013-08-16 12:36:00,72.6,66.1,29.98,SE,145,2.0,-999.0,80,0.00,,,0.02,WeatherSnoop3.0,2013-08-16 17:36:00,
2013-08-16 12:41:00,72.7,66.2,29.98,SE,126,0.0,-999.0,80,0.00,,,0.02,WeatherSnoop3.0,2013-08-16 17:41:00,
2013-08-16 12:46:00,73.4,66.8,29.98,SE,131,0.0,-999.0,80,0.00,,,0.02,WeatherSnoop3.0,2013-08-16 17:46:00,
2013-08-16 12:51:00,73.4,67.9,29.98,ESE,113,0.0,-999.0,83,0.00,,,0.02,WeatherSnoop3.0,2013-08-16 17:51:00,
2013-08-16 12:56:00,73.5,66.9,29.98,ENE,63,1.0,-999.0,80,0.00,,,0.02,WeatherSnoop3.0,2013-08-16 17:56:00,
2013-08-16 13:01:00,73.5,66.2,29.98,SE,145,2.0,-999.0,78,0.00,,,0.02,WeatherSnoop3.0,2013-08-16 18:01:00,
2013-08-16 13:06:00,73.4,67.2,29.98,SE,146,2.0,-999.0,81,0.00,,,0.02,WeatherSnoop3.0,2013-08-16 18:06:00,
2013-08-16 13:11:00,73.7,66.8,29.98,SSE,147,3.0,-999.0,79,0.00,,,0.02,WeatherSnoop3.0,2013-08-16 18:11:00,
2013-08-16 13:16:00,74.1,67.2,29.98,NNE,15,0.0,-999.0,79,0.00,,,0.02,WeatherSnoop3.0,2013-08-16 18:16:00,
2013-08-16 13:21:00,74.8,66.7,29.98,ESE,116,2.0,-999.0,76,0.00,,,0.02,WeatherSnoop3.0,2013-08-16 18:21:00,
2013-08-16 13:27:00,75.0,66.1,29.98,SSE,164,3.0,-999.0,74,0.00,,,0.02,WeatherSnoop3.0,2013-08-16 18:27:00,
2013-08-16 13:32:00,75.2,67.1,29.98,South,176,2.0,-999.0,76,0.00,,,0.02,WeatherSnoop3.0,2013-08-16 18:32:00,
2013-08-16 13:37:00,75.8,67.3,29.98,SSE,148,1.0,-999.0,75,0.00,,,0.02,WeatherSnoop3.0,2013-08-16 18:37:00,
2013-08-16 13:42:00,76.1,66.8,29.98,East,95,0.0,-999.0,73,0.00,,,0.02,WeatherSnoop3.0,2013-08-16 18:42:00,
2013-08-16 13:47:00,76.5,68.4,29.98,SE,137,1.0,-999.0,76,0.00,,,0.02,WeatherSnoop3.0,2013-08-16 18:47:00,
2013-08-16 13:52:00,76.8,66.7,29.97,South,191,3.0,-999.0,71,0.00,,,0.02,WeatherSnoop3.0,2013-08-16 18:52:00,
2013-08-16 13:57:00,76.8,69.0,29.97,ESE,115,2.0,-999.0,77,0.00,,,0.02,WeatherSnoop3.0,2013-08-16 18:57:00,
2013-08-16 14:02:00,76.8,68.3,29.97,ESE,102,0.0,-999.0,75,0.00,,,0.02,WeatherSnoop3.0,2013-08-16 19:02:00,
2013-08-16 14:07:00,77.1,68.5,29.97,East,81,0.0,-999.0,75,0.00,,,0.02,WeatherSnoop3.0,2013-08-16 19:07:00,
2013-08-16 14:12:00,76.9,68.0,29.97,SSE,149,4.0,-999.0,74,0.00,,,0.02,WeatherSnoop3.0,2013-08-16 19:12:00,
2013-08-16 14:17:00,77.2,69.4,29.97,ESE,117,2.0,-999.0,77,0.00,,,0.02,WeatherSnoop3.0,2013-08-16 19:17:00,
2013-08-16 14:22:00,77.4,67.6,29.96,SSE,149,2.0,-999.0,72,0.00,,,0.02,WeatherSnoop3.0,2013-08-16 19:22:00,
2013-08-16 14:27:00,77.6,69.0,29.96,NNW,342,1.0,-999.0,75,0.00,,,0.02,WeatherSnoop3.0,2013-08-16 19:27:00,
2013-08-16 14:32:00,78.0,69.4,29.96,ESE,115,0.0,-999.0,75,0.00,,,0.02,WeatherSnoop3.0,2013-08-16 19:32:00,
2013-08-16 14:37:00,78.2,68.8,29.96,East,96,1.0,-999.0,73,0.00,,,0.02,WeatherSnoop3.0,2013-08-16 19:37:00,
2013-08-16 14:42:00,77.9,68.5,29.96,SE,140,1.0,-999.0,73,0.00,,,0.02,WeatherSnoop3.0,2013-08-16 19:42:00,
2013-08-16 14:47:00,78.1,67.5,29.96,SSE,158,0.0,-999.0,70,0.00,,,0.02,WeatherSnoop3.0,2013-08-16 19:47:00,
2013-08-16 14:52:00,78.1,67.5,29.96,South,172,0.0,-999.0,70,0.00,,,0.02,WeatherSnoop3.0,2013-08-16 19:52:00,
2013-08-16 14:57:00,78.2,67.6,29.96,South,184,0.0,-999.0,70,0.00,,,0.02,WeatherSnoop3.0,2013-08-16 19:57:00,
2013-08-16 15:02:00,78.3,68.1,29.96,SSE,152,2.0,-999.0,71,0.00,,,0.02,WeatherSnoop3.0,2013-08-16 20:02:00,
2013-08-16 15:07:00,78.2,67.6,29.96,SSE,155,4.0,-999.0,70,0.00,,,0.02,WeatherSnoop3.0,2013-08-16 20:07:00,
2013-08-16 15:12:00,78.2,67.2,29.95,SSE,149,0.0,-999.0,69,0.00,,,0.02,WeatherSnoop3.0,2013-08-16 20:12:00,
2013-08-16 15:17:00,78.5,69.5,29.95,SE,145,0.0,-999.0,74,0.00,,,0.02,WeatherSnoop3.0,2013-08-16 20:17:00,
2013-08-16 15:22:00,78.8,69.0,29.95,East,91,0.0,-999.0,72,0.00,,,0.02,WeatherSnoop3.0,2013-08-16 20:22:00,
2013-08-16 15:27:00,78.8,67.3,29.95,NNE,16,0.0,-999.0,68,0.00,,,0.02,WeatherSnoop3.0,2013-08-16 20:27:00,
2013-08-16 15:32:00,78.7,68.5,29.95,ESE,110,1.0,-999.0,71,0.00,,,0.02,WeatherSnoop3.0,2013-08-16 20:32:00,
2013-08-16 15:37:00,79.1,68.0,29.95,East,84,0.0,-999.0,69,0.00,,,0.02,WeatherSnoop3.0,2013-08-16 20:37:00,
2013-08-16 15:42:00,79.2,68.1,29.95,ESE,110,0.0,-999.0,69,0.00,,,0.02,WeatherSnoop3.0,2013-08-16 20:42:00,
2013-08-16 15:47:00,79.1,67.2,29.95,East,97,1.0,-999.0,67,0.00,,,0.02,WeatherSnoop3.0,2013-08-16 20:47:00,
2013-08-16 15:52:00,79.1,66.7,29.95,SSE,148,0.0,-999.0,66,0.00,,,0.02,WeatherSnoop3.0,2013-08-16 20:52:00,
2013-08-16 15:57:00,79.6,68.1,29.95,ESE,110,0.0,-999.0,68,0.00,,,0.02,WeatherSnoop3.0,2013-08-16 20:57:00,
2013-08-16 16:02:00,79.7,68.2,29.95,ESE,107,0.0,-999.0,68,0.00,,,0.02,WeatherSnoop3.0,2013-08-16 21:02:00,
2013-08-16 16:07:00,79.9,67.5,29.95,ESE,120,0.0,-999.0,66,0.00,,,0.02,WeatherSnoop3.0,2013-08-16 21:07:00,
2013-08-16 16:12:00,79.5,66.2,29.95,SSE,147,0.0,-999.0,64,0.00,,,0.02,WeatherSnoop3.0,2013-08-16 21:12:00,
2013-08-16 16:17:00,80.2,67.3,29.95,SE,146,3.0,-999.0,65,0.00,,,0.02,WeatherSnoop3.0,2013-08-16 21:17:00,
2013-08-16 16:22:00,80.3,66.5,29.95,South,177,1.0,-999.0,63,0.00,,,0.02,WeatherSnoop3.0,2013-08-16 21:22:00,
2013-08-16 16:27:00,80.2,66.0,29.95,SE,136,0.0,-999.0,62,0.00,,,0.02,WeatherSnoop3.0,2013-08-16 21:27:00,
2013-08-16 16:32:00,80.2,67.3,29.95,East,96,0.0,-999.0,65,0.00,,,0.02,WeatherSnoop3.0,2013-08-16 21:32:00,
2013-08-16 16:37:00,79.6,66.8,29.95,SSE,151,0.0,-999.0,65,0.00,,,0.02,WeatherSnoop3.0,2013-08-16 21:37:00,
2013-08-16 16:42:00,78.7,66.8,29.95,SE,131,0.0,-999.0,67,0.00,,,0.02,WeatherSnoop3.0,2013-08-16 21:42:00,
2013-08-16 16:47:00,79.5,68.0,29.95,SE,139,0.0,-999.0,68,0.00,,,0.02,WeatherSnoop3.0,2013-08-16 21:47:00,
2013-08-16 16:52:00,80.2,66.4,29.95,SSE,150,0.0,-999.0,63,0.00,,,0.02,WeatherSnoop3.0,2013-08-16 21:52:00,
2013-08-16 16:57:00,80.0,65.8,29.95,SSE,149,2.0,-999.0,62,0.00,,,0.02,WeatherSnoop3.0,2013-08-16 21:57:00,
2013-08-16 17:02:00,80.2,68.7,29.95,North,356,0.0,-999.0,68,0.00,,,0.02,WeatherSnoop3.0,2013-08-16 22:02:00,
2013-08-16 17:07:00,80.4,66.6,29.95,SE,134,2.0,-999.0,63,0.00,,,0.02,WeatherSnoop3.0,2013-08-16 22:07:00,
2013-08-16 17:12:00,80.5,66.3,29.95,SE,140,1.0,-999.0,62,0.00,,,0.02,WeatherSnoop3.0,2013-08-16 22:12:00,
2013-08-16 17:17:00,80.9,68.0,29.95,East,93,0.0,-999.0,65,0.00,,,0.02,WeatherSnoop3.0,2013-08-16 22:17:00,
2013-08-16 17:22:00,80.7,66.9,29.95,ESE,107,0.0,-999.0,63,0.00,,,0.02,WeatherSnoop3.0,2013-08-16 22:22:00,
2013-08-16 17:27:00,80.3,66.1,29.95,SE,132,0.0,-999.0,62,0.00,,,0.02,WeatherSnoop3.0,2013-08-16 22:27:00,
2013-08-16 17:32:00,80.4,66.6,29.95,SE,140,2.0,-999.0,63,0.00,,,0.02,WeatherSnoop3.0,2013-08-16 22:32:00,
2013-08-16 17:37:00,80.2,66.0,29.95,SSE,164,0.0,-999.0,62,0.00,,,0.02,WeatherSnoop3.0,2013-08-16 22:37:00,
2013-08-16 17:42:00,80.1,66.3,29.95,ESE,113,0.0,-999.0,63,0.00,,,0.02,WeatherSnoop3.0,2013-08-16 22:42:00,
2013-08-16 17:47:00,80.0,67.6,29.95,SE,140,0.0,-999.0,66,0.00,,,0.02,WeatherSnoop3.0,2013-08-16 22:47:00,
2013-08-16 17:52:00,80.2,66.9,29.95,SSE,156,0.0,-999.0,64,0.00,,,0.02,WeatherSnoop3.0,2013-08-16 22:52:00,
2013-08-16 17:57:00,80.5,67.2,29.95,SE,143,2.0,-999.0,64,0.00,,,0.02,WeatherSnoop3.0,2013-08-16 22:57:00,
2013-08-16 18:02:00,80.3,66.5,29.95,SSE,158,0.0,-999.0,63,0.00,,,0.02,WeatherSnoop3.0,2013-08-16 23:02:00,
2013-08-16 18:07:00,80.6,67.7,29.95,South,169,0.0,-999.0,65,0.00,,,0.02,WeatherSnoop3.0,2013-08-16 23:07:00,
2013-08-16 18:12:00,80.6,67.7,29.96,East,96,0.0,-999.0,65,0.00,,,0.02,WeatherSnoop3.0,2013-08-16 23:12:00,
2013-08-16 18:17:00,80.5,67.6,29.95,South,173,1.0,-999.0,65,0.00,,,0.02,WeatherSnoop3.0,2013-08-16 23:17:00,
2013-08-16 18:22:00,80.3,66.5,29.96,SSE,155,3.0,-999.0,63,0.00,,,0.02,WeatherSnoop3.0,2013-08-16 23:22:00,
2013-08-16 18:27:00,80.2,66.9,29.96,SE,138,1.0,-999.0,64,0.00,,,0.02,WeatherSnoop3.0,2013-08-16 23:27:00,
2013-08-16 18:32:00,80.2,67.3,29.96,SSW,197,1.0,-999.0,65,0.00,,,0.02,WeatherSnoop3.0,2013-08-16 23:32:00,
2013-08-16 18:37:00,80.1,67.7,29.95,SE,142,1.0,-999.0,66,0.00,,,0.02,WeatherSnoop3.0,2013-08-16 23:37:00,
2013-08-16 18:42:00,79.8,66.5,29.96,SSE,158,3.0,-999.0,64,0.00,,,0.02,WeatherSnoop3.0,2013-08-16 23:42:00,
2013-08-16 18:47:00,79.3,66.5,29.95,SE,142,2.0,-999.0,65,0.00,,,0.02,WeatherSnoop3.0,2013-08-16 23:47:00,
2013-08-16 18:52:00,78.8,66.0,29.95,SE,140,0.0,-999.0,65,0.00,,,0.02,WeatherSnoop3.0,2013-08-16 23:52:00,
2013-08-16 18:57:00,78.6,66.7,29.95,SE,140,1.0,-999.0,67,0.00,,,0.02,WeatherSnoop3.0,2013-08-16 23:57:00,
2013-08-16 19:02:00,78.4,67.4,29.95,SSE,149,2.0,-999.0,69,0.00,,,0.02,WeatherSnoop3.0,2013-08-17 00:02:00,
2013-08-16 19:07:00,78.1,67.1,29.95,SE,136,1.0,-999.0,69,0.00,,,0.02,WeatherSnoop3.0,2013-08-17 00:07:00,
2013-08-16 19:12:00,78.0,67.0,29.95,SSE,158,0.0,-999.0,69,0.00,,,0.02,WeatherSnoop3.0,2013-08-17 00:12:00,
2013-08-16 19:17:00,77.8,67.2,29.95,SE,124,2.0,-999.0,70,0.00,,,0.02,WeatherSnoop3.0,2013-08-17 00:17:00,
2013-08-16 19:22:00,77.4,66.8,29.95,SSE,149,2.0,-999.0,70,0.00,,,0.02,WeatherSnoop3.0,2013-08-17 00:22:00,
2013-08-16 19:27:00,77.1,67.4,29.96,SSE,149,1.0,-999.0,72,0.00,,,0.02,WeatherSnoop3.0,2013-08-17 00:27:00,
2013-08-16 19:32:00,76.7,66.2,29.96,ESE,123,2.0,-999.0,70,0.00,,,0.02,WeatherSnoop3.0,2013-08-17 00:32:00,
2013-08-16 19:37:00,76.4,66.7,29.96,ESE,104,0.0,-999.0,72,0.00,,,0.02,WeatherSnoop3.0,2013-08-17 00:37:00,
2013-08-16 19:42:00,76.1,66.8,29.96,SE,127,0.0,-999.0,73,0.00,,,0.02,WeatherSnoop3.0,2013-08-17 00:42:00,
2013-08-16 19:47:00,75.8,66.5,29.96,SE,131,0.0,-999.0,73,0.00,,,0.02,WeatherSnoop3.0,2013-08-17 00:47:00,
2013-08-16 19:52:00,75.5,66.2,29.96,East,80,0.0,-999.0,73,0.00,,,0.02,WeatherSnoop3.0,2013-08-17 00:52:00,
2013-08-16 19:57:00,75.1,66.2,29.96,ESE,110,0.0,-999.0,74,0.00,,,0.02,WeatherSnoop3.0,2013-08-17 00:57:00,
2013-08-16 20:02:00,74.8,66.7,29.96,SE,128,0.0,-999.0,76,0.00,,,0.02,WeatherSnoop3.0,2013-08-17 01:02:00,
2013-08-16 20:07:00,74.2,66.5,29.96,SSE,148,0.0,-999.0,77,0.00,,,0.02,WeatherSnoop3.0,2013-08-17 01:07:00,
2013-08-16 20:12:00,73.9,66.6,29.96,SE,132,0.0,-999.0,78,0.00,,,0.02,WeatherSnoop3.0,2013-08-17 01:12:00,
2013-08-16 20:17:00,73.5,66.2,29.96,SSE,149,1.0,-999.0,78,0.00,,,0.02,WeatherSnoop3.0,2013-08-17 01:17:00,
2013-08-16 20:22:00,73.1,66.2,29.96,SE,138,1.0,-999.0,79,0.00,,,0.02,WeatherSnoop3.0,2013-08-17 01:22:00,
2013-08-16 20:27:00,72.8,66.6,29.96,SSE,150,1.0,-999.0,81,0.00,,,0.02,WeatherSnoop3.0,2013-08-17 01:27:00,
2013-08-16 20:32:00,72.5,66.3,29.96,SE,143,1.0,-999.0,81,0.00,,,0.02,WeatherSnoop3.0,2013-08-17 01:32:00,
2013-08-16 20:37:00,72.0,66.2,29.96,SE,144,0.0,-999.0,82,0.00,,,0.02,WeatherSnoop3.0,2013-08-17 01:37:00,
2013-08-16 20:42:00,71.7,66.3,29.97,SE,128,0.0,-999.0,83,0.00,,,0.02,WeatherSnoop3.0,2013-08-17 01:42:00,
2013-08-16 20:47:00,71.5,66.1,29.97,SE,131,0.0,-999.0,83,0.00,,,0.02,WeatherSnoop3.0,2013-08-17 01:47:00,
2013-08-16 20:52:00,71.4,66.0,29.97,SE,146,0.0,-999.0,83,0.00,,,0.02,WeatherSnoop3.0,2013-08-17 01:52:00,
2013-08-16 20:57:00,71.1,66.0,29.97,SE,146,0.0,-999.0,84,0.00,,,0.02,WeatherSnoop3.0,2013-08-17 01:57:00,
2013-08-16 21:02:00,70.9,66.2,29.97,ESE,117,0.0,-999.0,85,0.00,,,0.02,WeatherSnoop3.0,2013-08-17 02:02:00,
2013-08-16 21:07:00,70.7,66.0,29.98,South,172,0.0,-999.0,85,0.00,,,0.02,WeatherSnoop3.0,2013-08-17 02:07:00,
2013-08-16 21:12:00,70.5,66.1,29.98,SE,139,0.0,-999.0,86,0.00,,,0.02,WeatherSnoop3.0,2013-08-17 02:12:00,
2013-08-16 21:17:00,70.3,65.9,29.98,SE,139,0.0,-999.0,86,0.00,,,0.02,WeatherSnoop3.0,2013-08-17 02:17:00,
2013-08-16 21:22:00,70.0,65.9,29.98,SE,139,0.0,-999.0,87,0.00,,,0.02,WeatherSnoop3.0,2013-08-17 02:22:00,
2013-08-16 21:27:00,69.7,65.7,29.98,SE,139,0.0,-999.0,87,0.00,,,0.02,WeatherSnoop3.0,2013-08-17 02:27:00,
2013-08-16 21:32:00,69.5,65.5,29.99,ESE,115,0.0,-999.0,87,0.00,,,0.02,WeatherSnoop3.0,2013-08-17 02:32:00,
2013-08-16 21:37:00,69.6,65.6,29.99,ESE,120,0.0,-999.0,87,0.00,,,0.02,WeatherSnoop3.0,2013-08-17 02:37:00,
2013-08-16 21:42:00,69.7,65.7,29.99,SE,138,0.0,-999.0,87,0.00,,,0.02,WeatherSnoop3.0,2013-08-17 02:42:00,
2013-08-16 21:47:00,69.6,65.6,29.99,SE,134,0.0,-999.0,87,0.00,,,0.02,WeatherSnoop3.0,2013-08-17 02:47:00,
2013-08-16 21:52:00,69.6,65.6,29.99,SE,145,0.0,-999.0,87,0.00,,,0.02,WeatherSnoop3.0,2013-08-17 02:52:00,
2013-08-16 21:57:00,69.4,65.4,29.99,SSE,160,0.0,-999.0,87,0.00,,,0.02,WeatherSnoop3.0,2013-08-17 02:57:00,
2013-08-16 22:02:00,69.4,65.0,29.99,ESE,110,0.0,-999.0,86,0.00,,,0.02,WeatherSnoop3.0,2013-08-17 03:02:00,
2013-08-16 22:07:00,69.5,65.1,29.99,ESE,110,0.0,-999.0,86,0.00,,,0.02,WeatherSnoop3.0,2013-08-17 03:07:00,
2013-08-16 22:12:00,69.4,65.4,29.99,SE,138,0.0,-999.0,87,0.00,,,0.02,WeatherSnoop3.0,2013-08-17 03:12:00,
2013-08-16 22:17:00,69.2,64.8,29.99,ESE,104,0.0,-999.0,86,0.00,,,0.02,WeatherSnoop3.0,2013-08-17 03:17:00,
2013-08-16 22:22:00,69.0,65.0,29.99,ESE,105,0.0,-999.0,87,0.00,,,0.02,WeatherSnoop3.0,2013-08-17 03:22:00,
2013-08-16 22:27:00,69.0,65.0,30.00,SE,134,0.0,-999.0,87,0.00,,,0.02,WeatherSnoop3.0,2013-08-17 03:27:00,
2013-08-16 22:32:00,68.7,64.7,30.00,SE,124,0.0,-999.0,87,0.00,,,0.02,WeatherSnoop3.0,2013-08-17 03:32:00,
2013-08-16 22:37:00,68.5,64.8,30.00,SE,129,0.0,-999.0,88,0.00,,,0.02,WeatherSnoop3.0,2013-08-17 03:37:00,
2013-08-16 22:42:00,68.3,64.6,30.00,SE,142,0.0,-999.0,88,0.00,,,0.02,WeatherSnoop3.0,2013-08-17 03:42:00,
2013-08-16 22:47:00,68.0,64.6,30.00,SSE,156,0.0,-999.0,89,0.00,,,0.02,WeatherSnoop3.0,2013-08-17 03:47:00,
2013-08-16 22:52:00,67.8,64.4,30.00,SSE,156,0.0,-999.0,89,0.00,,,0.02,WeatherSnoop3.0,2013-08-17 03:52:00,
2013-08-16 22:57:00,67.6,64.2,30.00,SW,226,0.0,-999.0,89,0.00,,,0.02,WeatherSnoop3.0,2013-08-17 03:57:00,
2013-08-16 23:01:00,67.5,64.5,30.00,SW,219,0.0,-999.0,90,0.00,,,0.02,WeatherSnoop3.0,2013-08-17 04:01:00,
2013-08-16 23:03:00,67.3,64.3,30.00,SSE,153,0.0,-999.0,90,0.00,,,0.02,WeatherSnoop3.0,2013-08-17 04:03:00,
2013-08-16 23:06:00,67.2,64.2,30.00,SSE,153,0.0,-999.0,90,0.00,,,0.02,WeatherSnoop3.0,2013-08-17 04:06:00,
2013-08-16 23:11:00,67.2,64.2,30.00,SE,134,0.0,-999.0,90,0.00,,,0.02,WeatherSnoop3.0,2013-08-17 04:11:00,
2013-08-16 23:16:00,67.4,64.4,30.00,ESE,107,0.0,-999.0,90,0.00,,,0.02,WeatherSnoop3.0,2013-08-17 04:16:00,
2013-08-16 23:19:00,67.5,64.5,30.00,ESE,107,0.0,-999.0,90,0.00,,,0.02,WeatherSnoop3.0,2013-08-17 04:19:00,
2013-08-16 23:24:00,67.7,64.3,30.01,ESE,107,0.0,-999.0,89,0.00,,,0.02,WeatherSnoop3.0,2013-08-17 04:24:00,
2013-08-16 23:29:00,67.7,64.3,30.01,ESE,108,0.0,-999.0,89,0.00,,,0.02,WeatherSnoop3.0,2013-08-17 04:29:00,
2013-08-16 23:34:00,67.7,64.3,30.01,ESE,113,0.0,-999.0,89,0.00,,,0.02,WeatherSnoop3.0,2013-08-17 04:34:00,
2013-08-16 23:39:00,67.7,64.3,30.01,ESE,122,0.0,-999.0,89,0.00,,,0.02,WeatherSnoop3.0,2013-08-17 04:39:00,
2013-08-16 23:44:00,67.7,64.0,30.01,ESE,110,0.0,-999.0,88,0.00,,,0.02,WeatherSnoop3.0,2013-08-17 04:44:00,
2013-08-16 23:49:00,67.7,64.0,30.01,East,92,0.0,-999.0,88,0.00,,,0.02,WeatherSnoop3.0,2013-08-17 04:49:00,
2013-08-16 23:54:00,67.6,63.9,30.01,SE,126,1.0,-999.0,88,0.00,,,0.02,WeatherSnoop3.0,2013-08-17 04:54:00,
2013-08-16 23:59:00,67.5,63.8,30.01,ESE,105,0.0,-999.0,88,0.00,,,0.02,WeatherSnoop3.0,2013-08-17 04:59:00,